sensor_id;sensor_type;location;lat;lon;timestamp;P1;durP1;ratioP1;P2;durP2;ratioP2
19127;SDS011;9696;53.686;10.094;2023-03-13T00:01:33;0.10;;;0.10;;
19127;SDS011;9696;53.686;10.094;2023-03-13T00:04:05;0.10;;;0.10;;
19127;SDS011;9696;53.686;10.094;2023-03-13T00:06:35;0.10;;;0.10;;
19127;SDS011;9696;53.686;10.094;2023-03-13T00:09:06;0.10;;;0.10;;
19127;SDS011;9696;53.686;10.094;2023-03-13T00:11:36;0.10;;;0.10;;
19127;SDS011;9696;53.686;10.094;2023-03-13T00:14:06;0.10;;;0.10;;
19127;SDS011;9696;53.686;10.094;2023-03-13T00:16:36;0.10;;;0.10;;
19127;SDS011;9696;53.686;10.094;2023-03-13T00:19:07;0.10;;;0.10;;
19127;SDS011;9696;53.686;10.094;2023-03-13T00:21:37;1.07;;;0.97;;
19127;SDS011;9696;53.686;10.094;2023-03-13T00:24:08;0.20;;;0.20;;
19127;SDS011;9696;53.686;10.094;2023-03-13T00:26:37;0.10;;;0.10;;
19127;SDS011;9696;53.686;10.094;2023-03-13T00:29:06;0.10;;;0.10;;
19127;SDS011;9696;53.686;10.094;2023-03-13T00:31:35;0.10;;;0.10;;
19127;SDS011;9696;53.686;10.094;2023-03-13T00:34:04;0.10;;;0.10;;
19127;SDS011;9696;53.686;10.094;2023-03-13T00:36:37;0.10;;;0.10;;
19127;SDS011;9696;53.686;10.094;2023-03-13T00:39:06;0.13;;;0.13;;
19127;SDS011;9696;53.686;10.094;2023-03-13T00:41:36;0.10;;;0.10;;
19127;SDS011;9696;53.686;10.094;2023-03-13T00:44:05;0.10;;;0.10;;
19127;SDS011;9696;53.686;10.094;2023-03-13T00:46:35;0.10;;;0.10;;
19127;SDS011;9696;53.686;10.094;2023-03-13T00:49:04;0.10;;;0.10;;
19127;SDS011;9696;53.686;10.094;2023-03-13T00:51:33;0.10;;;0.10;;
19127;SDS011;9696;53.686;10.094;2023-03-13T00:54:04;0.10;;;0.10;;
19127;SDS011;9696;53.686;10.094;2023-03-13T00:56:33;16.97;;;3.20;;
19127;SDS011;9696;53.686;10.094;2023-03-13T00:59:02;19.90;;;3.20;;
19127;SDS011;9696;53.686;10.094;2023-03-13T01:01:32;17.07;;;4.13;;
19127;SDS011;9696;53.686;10.094;2023-03-13T01:04:03;10.67;;;3.03;;
19127;SDS011;9696;53.686;10.094;2023-03-13T01:06:34;13.03;;;3.30;;
19127;SDS011;9696;53.686;10.094;2023-03-13T01:09:08;18.40;;;3.57;;
19127;SDS011;9696;53.686;10.094;2023-03-13T01:11:39;21.10;;;3.73;;
19127;SDS011;9696;53.686;10.094;2023-03-13T01:14:11;26.03;;;4.30;;
19127;SDS011;9696;53.686;10.094;2023-03-13T01:16:41;14.07;;;3.60;;
19127;SDS011;9696;53.686;10.094;2023-03-13T01:19:11;18.37;;;4.17;;
19127;SDS011;9696;53.686;10.094;2023-03-13T01:21:43;16.13;;;4.00;;
19127;SDS011;9696;53.686;10.094;2023-03-13T01:24:14;13.93;;;3.57;;
19127;SDS011;9696;53.686;10.094;2023-03-13T01:26:45;14.87;;;4.07;;
19127;SDS011;9696;53.686;10.094;2023-03-13T01:29:14;17.17;;;4.23;;
19127;SDS011;9696;53.686;10.094;2023-03-13T01:31:44;19.17;;;3.83;;
19127;SDS011;9696;53.686;10.094;2023-03-13T01:34:13;22.20;;;3.83;;
19127;SDS011;9696;53.686;10.094;2023-03-13T01:36:42;21.40;;;3.80;;
19127;SDS011;9696;53.686;10.094;2023-03-13T01:39:12;13.20;;;4.03;;
19127;SDS011;9696;53.686;10.094;2023-03-13T01:41:43;25.13;;;4.33;;
19127;SDS011;9696;53.686;10.094;2023-03-13T01:44:17;20.73;;;3.80;;
19127;SDS011;9696;53.686;10.094;2023-03-13T01:46:49;18.70;;;3.87;;
19127;SDS011;9696;53.686;10.094;2023-03-13T01:49:26;14.00;;;4.13;;
19127;SDS011;9696;53.686;10.094;2023-03-13T01:52:12;19.03;;;4.20;;
19127;SDS011;9696;53.686;10.094;2023-03-13T01:55:07;14.83;;;4.30;;
19127;SDS011;9696;53.686;10.094;2023-03-13T01:57:43;20.30;;;4.17;;
19127;SDS011;9696;53.686;10.094;2023-03-13T02:00:17;25.23;;;4.50;;
19127;SDS011;9696;53.686;10.094;2023-03-13T02:02:50;20.30;;;4.83;;
19127;SDS011;9696;53.686;10.094;2023-03-13T02:05:23;16.83;;;3.93;;
19127;SDS011;9696;53.686;10.094;2023-03-13T02:07:54;21.43;;;4.40;;
19127;SDS011;9696;53.686;10.094;2023-03-13T02:10:37;26.13;;;4.67;;
19127;SDS011;9696;53.686;10.094;2023-03-13T02:13:11;27.53;;;5.13;;
19127;SDS011;9696;53.686;10.094;2023-03-13T02:15:43;20.67;;;4.10;;
19127;SDS011;9696;53.686;10.094;2023-03-13T02:18:13;25.80;;;5.10;;
19127;SDS011;9696;53.686;10.094;2023-03-13T02:20:45;16.33;;;3.93;;
19127;SDS011;9696;53.686;10.094;2023-03-13T02:23:18;14.17;;;3.70;;
19127;SDS011;9696;53.686;10.094;2023-03-13T02:25:56;17.50;;;4.70;;
19127;SDS011;9696;53.686;10.094;2023-03-13T02:28:32;21.77;;;4.70;;
19127;SDS011;9696;53.686;10.094;2023-03-13T02:31:09;17.83;;;5.23;;
19127;SDS011;9696;53.686;10.094;2023-03-13T02:33:39;15.43;;;3.40;;
19127;SDS011;9696;53.686;10.094;2023-03-13T02:36:13;25.53;;;5.00;;
19127;SDS011;9696;53.686;10.094;2023-03-13T02:38:44;20.33;;;4.23;;
19127;SDS011;9696;53.686;10.094;2023-03-13T02:41:22;26.67;;;4.73;;
19127;SDS011;9696;53.686;10.094;2023-03-13T02:43:54;25.13;;;4.77;;
19127;SDS011;9696;53.686;10.094;2023-03-13T02:46:23;33.00;;;4.73;;
19127;SDS011;9696;53.686;10.094;2023-03-13T02:48:53;25.97;;;4.07;;
19127;SDS011;9696;53.686;10.094;2023-03-13T02:51:27;23.50;;;4.87;;
19127;SDS011;9696;53.686;10.094;2023-03-13T02:54:01;21.00;;;4.27;;
19127;SDS011;9696;53.686;10.094;2023-03-13T02:56:35;15.33;;;3.43;;
19127;SDS011;9696;53.686;10.094;2023-03-13T02:59:07;20.83;;;3.70;;
19127;SDS011;9696;53.686;10.094;2023-03-13T03:01:39;24.33;;;3.80;;
19127;SDS011;9696;53.686;10.094;2023-03-13T03:04:08;16.63;;;3.30;;
19127;SDS011;9696;53.686;10.094;2023-03-13T03:06:37;17.23;;;3.47;;
19127;SDS011;9696;53.686;10.094;2023-03-13T03:09:07;16.90;;;3.50;;
19127;SDS011;9696;53.686;10.094;2023-03-13T03:11:38;19.87;;;3.97;;
19127;SDS011;9696;53.686;10.094;2023-03-13T03:14:11;11.33;;;3.27;;
19127;SDS011;9696;53.686;10.094;2023-03-13T03:16:43;14.00;;;3.57;;
19127;SDS011;9696;53.686;10.094;2023-03-13T03:19:13;11.33;;;3.53;;
19127;SDS011;9696;53.686;10.094;2023-03-13T03:21:42;19.17;;;3.80;;
19127;SDS011;9696;53.686;10.094;2023-03-13T03:24:11;19.97;;;4.03;;
19127;SDS011;9696;53.686;10.094;2023-03-13T03:26:41;12.10;;;3.17;;
19127;SDS011;9696;53.686;10.094;2023-03-13T03:29:17;19.23;;;4.07;;
19127;SDS011;9696;53.686;10.094;2023-03-13T03:31:50;15.17;;;3.07;;
19127;SDS011;9696;53.686;10.094;2023-03-13T03:34:19;19.87;;;3.63;;
19127;SDS011;9696;53.686;10.094;2023-03-13T03:36:49;15.33;;;3.87;;
19127;SDS011;9696;53.686;10.094;2023-03-13T03:39:18;15.10;;;3.93;;
19127;SDS011;9696;53.686;10.094;2023-03-13T03:41:49;19.87;;;3.37;;
19127;SDS011;9696;53.686;10.094;2023-03-13T03:44:18;15.17;;;3.47;;
19127;SDS011;9696;53.686;10.094;2023-03-13T03:46:56;13.93;;;3.20;;
19127;SDS011;9696;53.686;10.094;2023-03-13T03:49:29;15.73;;;3.83;;
19127;SDS011;9696;53.686;10.094;2023-03-13T03:51:58;12.90;;;3.33;;
19127;SDS011;9696;53.686;10.094;2023-03-13T03:54:32;13.80;;;3.53;;
19127;SDS011;9696;53.686;10.094;2023-03-13T03:57:03;8.23;;;2.43;;
19127;SDS011;9696;53.686;10.094;2023-03-13T03:59:33;20.50;;;3.53;;
19127;SDS011;9696;53.686;10.094;2023-03-13T04:02:06;17.63;;;4.57;;
19127;SDS011;9696;53.686;10.094;2023-03-13T04:04:35;22.60;;;3.80;;
19127;SDS011;9696;53.686;10.094;2023-03-13T04:07:27;11.47;;;3.37;;
19127;SDS011;9696;53.686;10.094;2023-03-13T04:09:57;19.17;;;3.50;;
19127;SDS011;9696;53.686;10.094;2023-03-13T04:12:35;15.67;;;3.83;;
19127;SDS011;9696;53.686;10.094;2023-03-13T04:15:05;11.27;;;3.70;;
19127;SDS011;9696;53.686;10.094;2023-03-13T04:17:36;9.67;;;2.80;;
19127;SDS011;9696;53.686;10.094;2023-03-13T04:20:06;14.93;;;2.63;;
19127;SDS011;9696;53.686;10.094;2023-03-13T04:22:37;14.70;;;3.87;;
19127;SDS011;9696;53.686;10.094;2023-03-13T04:25:06;21.53;;;2.90;;
19127;SDS011;9696;53.686;10.094;2023-03-13T04:27:38;18.57;;;3.90;;
19127;SDS011;9696;53.686;10.094;2023-03-13T04:30:08;13.17;;;2.90;;
19127;SDS011;9696;53.686;10.094;2023-03-13T04:32:47;16.80;;;3.13;;
19127;SDS011;9696;53.686;10.094;2023-03-13T04:35:40;24.47;;;3.77;;
19127;SDS011;9696;53.686;10.094;2023-03-13T04:38:23;12.83;;;3.33;;
19127;SDS011;9696;53.686;10.094;2023-03-13T04:41:01;16.43;;;3.30;;
19127;SDS011;9696;53.686;10.094;2023-03-13T04:44:07;13.33;;;2.93;;
19127;SDS011;9696;53.686;10.094;2023-03-13T04:46:36;11.07;;;3.00;;
19127;SDS011;9696;53.686;10.094;2023-03-13T04:49:12;13.27;;;3.80;;
19127;SDS011;9696;53.686;10.094;2023-03-13T04:51:54;20.97;;;3.17;;
19127;SDS011;9696;53.686;10.094;2023-03-13T04:54:45;17.00;;;3.23;;
19127;SDS011;9696;53.686;10.094;2023-03-13T04:57:27;13.37;;;4.00;;
19127;SDS011;9696;53.686;10.094;2023-03-13T05:00:24;11.63;;;2.53;;
19127;SDS011;9696;53.686;10.094;2023-03-13T05:03:09;11.27;;;3.23;;
19127;SDS011;9696;53.686;10.094;2023-03-13T05:05:49;13.10;;;2.90;;
19127;SDS011;9696;53.686;10.094;2023-03-13T05:08:53;14.23;;;3.40;;
19127;SDS011;9696;53.686;10.094;2023-03-13T05:11:46;11.13;;;2.87;;
19127;SDS011;9696;53.686;10.094;2023-03-13T05:14:24;23.40;;;3.77;;
19127;SDS011;9696;53.686;10.094;2023-03-13T05:17:15;16.07;;;3.47;;
19127;SDS011;9696;53.686;10.094;2023-03-13T05:20:05;12.40;;;2.87;;
19127;SDS011;9696;53.686;10.094;2023-03-13T05:22:46;17.03;;;4.03;;
19127;SDS011;9696;53.686;10.094;2023-03-13T05:25:26;14.47;;;3.50;;
19127;SDS011;9696;53.686;10.094;2023-03-13T05:28:21;7.83;;;1.93;;
19127;SDS011;9696;53.686;10.094;2023-03-13T05:31:09;12.47;;;2.40;;
19127;SDS011;9696;53.686;10.094;2023-03-13T05:33:52;10.93;;;3.47;;
19127;SDS011;9696;53.686;10.094;2023-03-13T05:36:41;12.13;;;2.93;;
19127;SDS011;9696;53.686;10.094;2023-03-13T05:39:36;7.50;;;2.63;;
19127;SDS011;9696;53.686;10.094;2023-03-13T05:42:17;8.83;;;2.40;;
19127;SDS011;9696;53.686;10.094;2023-03-13T05:44:59;12.40;;;2.53;;
19127;SDS011;9696;53.686;10.094;2023-03-13T05:48:02;11.90;;;2.13;;
19127;SDS011;9696;53.686;10.094;2023-03-13T05:50:52;8.03;;;2.07;;
19127;SDS011;9696;53.686;10.094;2023-03-13T05:53:40;9.93;;;2.20;;
19127;SDS011;9696;53.686;10.094;2023-03-13T05:56:29;6.20;;;2.37;;
19127;SDS011;9696;53.686;10.094;2023-03-13T05:59:18;10.67;;;3.20;;
19127;SDS011;9696;53.686;10.094;2023-03-13T06:02:08;14.23;;;2.97;;
19127;SDS011;9696;53.686;10.094;2023-03-13T06:04:42;8.87;;;2.23;;
19127;SDS011;9696;53.686;10.094;2023-03-13T06:07:13;7.20;;;2.27;;
19127;SDS011;9696;53.686;10.094;2023-03-13T06:09:42;8.57;;;1.97;;
19127;SDS011;9696;53.686;10.094;2023-03-13T06:12:12;5.83;;;1.73;;
19127;SDS011;9696;53.686;10.094;2023-03-13T06:14:41;7.30;;;1.87;;
19127;SDS011;9696;53.686;10.094;2023-03-13T06:17:13;6.13;;;1.83;;
19127;SDS011;9696;53.686;10.094;2023-03-13T06:19:43;7.13;;;2.67;;
19127;SDS011;9696;53.686;10.094;2023-03-13T06:22:15;10.30;;;2.60;;
19127;SDS011;9696;53.686;10.094;2023-03-13T06:24:44;6.37;;;2.60;;
19127;SDS011;9696;53.686;10.094;2023-03-13T06:27:15;5.37;;;1.70;;
19127;SDS011;9696;53.686;10.094;2023-03-13T06:29:44;3.67;;;1.83;;
19127;SDS011;9696;53.686;10.094;2023-03-13T06:32:13;5.20;;;1.30;;
19127;SDS011;9696;53.686;10.094;2023-03-13T06:34:42;9.13;;;1.83;;
19127;SDS011;9696;53.686;10.094;2023-03-13T06:37:12;5.37;;;1.40;;
19127;SDS011;9696;53.686;10.094;2023-03-13T06:39:42;2.43;;;0.93;;
19127;SDS011;9696;53.686;10.094;2023-03-13T06:42:11;4.87;;;1.10;;
19127;SDS011;9696;53.686;10.094;2023-03-13T06:44:40;7.17;;;1.60;;
19127;SDS011;9696;53.686;10.094;2023-03-13T06:47:10;3.00;;;0.90;;
19127;SDS011;9696;53.686;10.094;2023-03-13T06:49:41;2.57;;;1.07;;
19127;SDS011;9696;53.686;10.094;2023-03-13T06:52:10;4.67;;;1.60;;
19127;SDS011;9696;53.686;10.094;2023-03-13T06:54:41;3.63;;;1.00;;
19127;SDS011;9696;53.686;10.094;2023-03-13T06:57:10;1.77;;;0.93;;
19127;SDS011;9696;53.686;10.094;2023-03-13T06:59:39;1.17;;;0.80;;
19127;SDS011;9696;53.686;10.094;2023-03-13T07:02:08;3.70;;;0.80;;
19127;SDS011;9696;53.686;10.094;2023-03-13T07:04:38;5.60;;;1.30;;
19127;SDS011;9696;53.686;10.094;2023-03-13T07:07:09;2.30;;;1.10;;
19127;SDS011;9696;53.686;10.094;2023-03-13T07:09:58;1.47;;;1.00;;
19127;SDS011;9696;53.686;10.094;2023-03-13T07:12:27;1.27;;;0.70;;
19127;SDS011;9696;53.686;10.094;2023-03-13T07:14:56;1.10;;;0.87;;
19127;SDS011;9696;53.686;10.094;2023-03-13T07:17:25;3.00;;;1.03;;
19127;SDS011;9696;53.686;10.094;2023-03-13T07:19:54;4.03;;;0.60;;
19127;SDS011;9696;53.686;10.094;2023-03-13T07:22:23;2.50;;;0.70;;
19127;SDS011;9696;53.686;10.094;2023-03-13T07:24:52;1.00;;;0.90;;
19127;SDS011;9696;53.686;10.094;2023-03-13T07:27:23;0.10;;;0.10;;
19127;SDS011;9696;53.686;10.094;2023-03-13T07:29:52;0.10;;;0.10;;
19127;SDS011;9696;53.686;10.094;2023-03-13T07:32:21;0.10;;;0.10;;
19127;SDS011;9696;53.686;10.094;2023-03-13T07:34:50;0.10;;;0.10;;
19127;SDS011;9696;53.686;10.094;2023-03-13T07:37:19;0.00;;;0.00;;
19127;SDS011;9696;53.686;10.094;2023-03-13T07:39:48;0.10;;;0.10;;
19127;SDS011;9696;53.686;10.094;2023-03-13T07:42:17;0.10;;;0.10;;
19127;SDS011;9696;53.686;10.094;2023-03-13T07:44:48;0.10;;;0.10;;
19127;SDS011;9696;53.686;10.094;2023-03-13T07:47:17;0.00;;;0.00;;
19127;SDS011;9696;53.686;10.094;2023-03-13T07:49:46;0.10;;;0.10;;
19127;SDS011;9696;53.686;10.094;2023-03-13T07:52:15;0.10;;;0.10;;
19127;SDS011;9696;53.686;10.094;2023-03-13T07:54:44;0.10;;;0.10;;
19127;SDS011;9696;53.686;10.094;2023-03-13T07:57:13;0.10;;;0.10;;
19127;SDS011;9696;53.686;10.094;2023-03-13T07:59:42;0.10;;;0.10;;
19127;SDS011;9696;53.686;10.094;2023-03-13T08:02:13;0.20;;;0.20;;
19127;SDS011;9696;53.686;10.094;2023-03-13T08:04:42;0.00;;;0.00;;
19127;SDS011;9696;53.686;10.094;2023-03-13T08:07:12;0.00;;;0.00;;
19127;SDS011;9696;53.686;10.094;2023-03-13T08:09:41;0.10;;;0.10;;
19127;SDS011;9696;53.686;10.094;2023-03-13T08:12:10;0.10;;;0.10;;
19127;SDS011;9696;53.686;10.094;2023-03-13T08:14:39;0.10;;;0.10;;
19127;SDS011;9696;53.686;10.094;2023-03-13T08:17:08;0.00;;;0.00;;
19127;SDS011;9696;53.686;10.094;2023-03-13T08:19:38;0.20;;;0.20;;
19127;SDS011;9696;53.686;10.094;2023-03-13T08:22:07;0.10;;;0.10;;
19127;SDS011;9696;53.686;10.094;2023-03-13T08:24:36;0.10;;;0.10;;
19127;SDS011;9696;53.686;10.094;2023-03-13T08:27:05;0.00;;;0.00;;
19127;SDS011;9696;53.686;10.094;2023-03-13T08:29:35;0.10;;;0.10;;
19127;SDS011;9696;53.686;10.094;2023-03-13T08:32:04;0.00;;;0.00;;
19127;SDS011;9696;53.686;10.094;2023-03-13T08:34:33;0.10;;;0.10;;
19127;SDS011;9696;53.686;10.094;2023-03-13T08:37:04;0.10;;;0.10;;
19127;SDS011;9696;53.686;10.094;2023-03-13T08:39:33;0.10;;;0.10;;
19127;SDS011;9696;53.686;10.094;2023-03-13T08:42:02;0.10;;;0.10;;
19127;SDS011;9696;53.686;10.094;2023-03-13T08:44:31;0.00;;;0.00;;
19127;SDS011;9696;53.686;10.094;2023-03-13T08:47:00;0.10;;;0.10;;
19127;SDS011;9696;53.686;10.094;2023-03-13T08:49:32;0.07;;;0.07;;
19127;SDS011;9696;53.686;10.094;2023-03-13T08:52:04;0.10;;;0.10;;
19127;SDS011;9696;53.686;10.094;2023-03-13T08:54:33;0.00;;;0.00;;
19127;SDS011;9696;53.686;10.094;2023-03-13T08:57:03;0.00;;;0.00;;
19127;SDS011;9696;53.686;10.094;2023-03-13T08:59:32;0.00;;;0.00;;
19127;SDS011;9696;53.686;10.094;2023-03-13T09:02:01;0.10;;;0.10;;
19127;SDS011;9696;53.686;10.094;2023-03-13T09:04:30;0.10;;;0.10;;
19127;SDS011;9696;53.686;10.094;2023-03-13T09:06:59;0.20;;;0.20;;
19127;SDS011;9696;53.686;10.094;2023-03-13T09:09:29;0.10;;;0.10;;
19127;SDS011;9696;53.686;10.094;2023-03-13T09:11:58;0.10;;;0.10;;
19127;SDS011;9696;53.686;10.094;2023-03-13T09:14:27;0.00;;;0.00;;
19127;SDS011;9696;53.686;10.094;2023-03-13T09:16:56;0.10;;;0.10;;
19127;SDS011;9696;53.686;10.094;2023-03-13T09:19:26;0.10;;;0.10;;
19127;SDS011;9696;53.686;10.094;2023-03-13T09:21:55;0.03;;;0.03;;
19127;SDS011;9696;53.686;10.094;2023-03-13T09:24:24;0.10;;;0.10;;
19127;SDS011;9696;53.686;10.094;2023-03-13T09:26:55;0.10;;;0.10;;
19127;SDS011;9696;53.686;10.094;2023-03-13T09:29:27;0.05;;;0.05;;
19127;SDS011;9696;53.686;10.094;2023-03-13T09:31:56;0.00;;;0.00;;
19127;SDS011;9696;53.686;10.094;2023-03-13T09:34:25;0.00;;;0.00;;
19127;SDS011;9696;53.686;10.094;2023-03-13T09:36:54;0.00;;;0.00;;
19127;SDS011;9696;53.686;10.094;2023-03-13T09:39:23;0.10;;;0.10;;
19127;SDS011;9696;53.686;10.094;2023-03-13T09:41:56;0.00;;;0.00;;
19127;SDS011;9696;53.686;10.094;2023-03-13T09:44:35;0.07;;;0.07;;
19127;SDS011;9696;53.686;10.094;2023-03-13T09:47:14;0.10;;;0.10;;
19127;SDS011;9696;53.686;10.094;2023-03-13T09:49:50;0.10;;;0.10;;
19127;SDS011;9696;53.686;10.094;2023-03-13T09:52:23;0.10;;;0.10;;
19127;SDS011;9696;53.686;10.094;2023-03-13T09:54:53;0.00;;;0.00;;
19127;SDS011;9696;53.686;10.094;2023-03-13T09:57:29;0.20;;;0.20;;
19127;SDS011;9696;53.686;10.094;2023-03-13T10:00:04;0.00;;;0.00;;
19127;SDS011;9696;53.686;10.094;2023-03-13T10:02:39;0.10;;;0.10;;
19127;SDS011;9696;53.686;10.094;2023-03-13T10:05:13;0.00;;;0.00;;
19127;SDS011;9696;53.686;10.094;2023-03-13T10:07:47;0.00;;;0.00;;
19127;SDS011;9696;53.686;10.094;2023-03-13T10:10:20;0.52;;;0.52;;
19127;SDS011;9696;53.686;10.094;2023-03-13T10:13:01;0.00;;;0.00;;
19127;SDS011;9696;53.686;10.094;2023-03-13T10:15:40;0.10;;;0.10;;
19127;SDS011;9696;53.686;10.094;2023-03-13T10:18:16;0.00;;;0.00;;
19127;SDS011;9696;53.686;10.094;2023-03-13T10:20:48;0.10;;;0.10;;
19127;SDS011;9696;53.686;10.094;2023-03-13T10:23:20;0.00;;;0.00;;
19127;SDS011;9696;53.686;10.094;2023-03-13T10:25:54;2.30;;;0.37;;
19127;SDS011;9696;53.686;10.094;2023-03-13T10:28:24;0.00;;;0.00;;
19127;SDS011;9696;53.686;10.094;2023-03-13T10:30:56;0.00;;;0.00;;
19127;SDS011;9696;53.686;10.094;2023-03-13T10:33:30;0.10;;;0.10;;
19127;SDS011;9696;53.686;10.094;2023-03-13T10:36:05;0.00;;;0.00;;
19127;SDS011;9696;53.686;10.094;2023-03-13T10:38:45;0.00;;;0.00;;
19127;SDS011;9696;53.686;10.094;2023-03-13T10:41:21;0.00;;;0.00;;
19127;SDS011;9696;53.686;10.094;2023-03-13T10:43:57;0.00;;;0.00;;
19127;SDS011;9696;53.686;10.094;2023-03-13T10:46:29;0.10;;;0.10;;
19127;SDS011;9696;53.686;10.094;2023-03-13T10:49:00;0.00;;;0.00;;
19127;SDS011;9696;53.686;10.094;2023-03-13T10:51:33;0.10;;;0.10;;
19127;SDS011;9696;53.686;10.094;2023-03-13T10:54:12;0.00;;;0.00;;
19127;SDS011;9696;53.686;10.094;2023-03-13T10:56:42;4.50;;;1.98;;
19127;SDS011;9696;53.686;10.094;2023-03-13T10:59:23;5.75;;;2.10;;
19127;SDS011;9696;53.686;10.094;2023-03-13T11:01:57;4.20;;;2.05;;
19127;SDS011;9696;53.686;10.094;2023-03-13T11:04:28;2.58;;;1.88;;
19127;SDS011;9696;53.686;10.094;2023-03-13T11:07:03;4.65;;;2.40;;
19127;SDS011;9696;53.686;10.094;2023-03-13T11:09:33;3.33;;;2.22;;
19127;SDS011;9696;53.686;10.094;2023-03-13T11:12:03;2.80;;;2.03;;
19127;SDS011;9696;53.686;10.094;2023-03-13T11:14:37;1.45;;;1.20;;
19127;SDS011;9696;53.686;10.094;2023-03-13T11:17:09;2.78;;;1.95;;
19127;SDS011;9696;53.686;10.094;2023-03-13T11:19:52;6.13;;;1.98;;
19127;SDS011;9696;53.686;10.094;2023-03-13T11:22:33;4.63;;;2.50;;
19127;SDS011;9696;53.686;10.094;2023-03-13T11:25:18;4.20;;;1.77;;
19127;SDS011;9696;53.686;10.094;2023-03-13T11:28:05;2.00;;;1.50;;
19127;SDS011;9696;53.686;10.094;2023-03-13T11:30:54;5.28;;;2.20;;
19127;SDS011;9696;53.686;10.094;2023-03-13T11:33:46;2.72;;;1.45;;
19127;SDS011;9696;53.686;10.094;2023-03-13T11:36:25;3.08;;;1.00;;
19127;SDS011;9696;53.686;10.094;2023-03-13T11:39:02;10.18;;;1.90;;
19127;SDS011;9696;53.686;10.094;2023-03-13T11:41:44;3.72;;;1.85;;
19127;SDS011;9696;53.686;10.094;2023-03-13T11:44:29;1.55;;;1.17;;
19127;SDS011;9696;53.686;10.094;2023-03-13T11:47:22;3.63;;;1.60;;
19127;SDS011;9696;53.686;10.094;2023-03-13T11:50:07;3.03;;;1.38;;
19127;SDS011;9696;53.686;10.094;2023-03-13T11:52:49;4.78;;;1.85;;
19127;SDS011;9696;53.686;10.094;2023-03-13T11:55:28;4.95;;;1.80;;
19127;SDS011;9696;53.686;10.094;2023-03-13T11:58:15;4.57;;;1.35;;
19127;SDS011;9696;53.686;10.094;2023-03-13T12:00:59;4.00;;;1.00;;
19127;SDS011;9696;53.686;10.094;2023-03-13T12:03:35;3.45;;;1.20;;
19127;SDS011;9696;53.686;10.094;2023-03-13T12:06:10;2.42;;;1.00;;
19127;SDS011;9696;53.686;10.094;2023-03-13T12:08:55;2.25;;;0.95;;
19127;SDS011;9696;53.686;10.094;2023-03-13T12:11:30;1.52;;;1.00;;
19127;SDS011;9696;53.686;10.094;2023-03-13T12:14:10;3.38;;;1.35;;
19127;SDS011;9696;53.686;10.094;2023-03-13T12:16:45;6.22;;;2.03;;
19127;SDS011;9696;53.686;10.094;2023-03-13T12:19:21;2.08;;;1.42;;
19127;SDS011;9696;53.686;10.094;2023-03-13T12:21:55;3.08;;;1.30;;
19127;SDS011;9696;53.686;10.094;2023-03-13T12:24:29;4.13;;;1.08;;
19127;SDS011;9696;53.686;10.094;2023-03-13T12:27:04;6.82;;;0.93;;
19127;SDS011;9696;53.686;10.094;2023-03-13T12:29:43;2.83;;;1.60;;
19127;SDS011;9696;53.686;10.094;2023-03-13T12:32:22;2.90;;;1.58;;
19127;SDS011;9696;53.686;10.094;2023-03-13T12:34:59;11.70;;;1.38;;
19127;SDS011;9696;53.686;10.094;2023-03-13T12:37:37;2.88;;;1.15;;
19127;SDS011;9696;53.686;10.094;2023-03-13T12:40:13;1.95;;;1.17;;
19127;SDS011;9696;53.686;10.094;2023-03-13T12:42:50;4.50;;;1.20;;
19127;SDS011;9696;53.686;10.094;2023-03-13T12:45:24;3.58;;;1.27;;
19127;SDS011;9696;53.686;10.094;2023-03-13T12:48:01;2.50;;;1.20;;
19127;SDS011;9696;53.686;10.094;2023-03-13T12:50:50;5.82;;;1.13;;
19127;SDS011;9696;53.686;10.094;2023-03-13T12:56:32;3.80;;;0.95;;
19127;SDS011;9696;53.686;10.094;2023-03-13T12:59:14;4.10;;;1.38;;
19127;SDS011;9696;53.686;10.094;2023-03-13T13:01:46;3.38;;;1.15;;
19127;SDS011;9696;53.686;10.094;2023-03-13T13:04:18;1.48;;;1.05;;
19127;SDS011;9696;53.686;10.094;2023-03-13T13:06:53;2.13;;;1.00;;
19127;SDS011;9696;53.686;10.094;2023-03-13T13:09:28;1.38;;;0.90;;
19127;SDS011;9696;53.686;10.094;2023-03-13T13:11:59;2.70;;;1.30;;
19127;SDS011;9696;53.686;10.094;2023-03-13T13:17:42;4.60;;;1.45;;
19127;SDS011;9696;53.686;10.094;2023-03-13T13:20:25;6.90;;;2.83;;
19127;SDS011;9696;53.686;10.094;2023-03-13T13:23:28;6.00;;;2.45;;
19127;SDS011;9696;53.686;10.094;2023-03-13T13:35:29;4.20;;;1.35;;
19127;SDS011;9696;53.686;10.094;2023-03-13T13:40:59;4.70;;;0.85;;
19127;SDS011;9696;53.686;10.094;2023-03-13T13:43:32;3.53;;;1.00;;
19127;SDS011;9696;53.686;10.094;2023-03-13T13:46:03;2.28;;;0.82;;
19127;SDS011;9696;53.686;10.094;2023-03-13T13:48:44;4.20;;;1.10;;
19127;SDS011;9696;53.686;10.094;2023-03-13T13:54:00;7.38;;;0.90;;
19127;SDS011;9696;53.686;10.094;2023-03-13T13:59:26;3.35;;;0.90;;
19127;SDS011;9696;53.686;10.094;2023-03-13T14:04:47;3.00;;;0.90;;
19127;SDS011;9696;53.686;10.094;2023-03-13T14:07:28;11.50;;;1.20;;
19127;SDS011;9696;53.686;10.094;2023-03-13T14:10:06;2.22;;;0.70;;
19127;SDS011;9696;53.686;10.094;2023-03-13T14:12:46;9.35;;;1.10;;
19127;SDS011;9696;53.686;10.094;2023-03-13T14:15:19;3.58;;;1.30;;
19127;SDS011;9696;53.686;10.094;2023-03-13T14:17:49;2.35;;;0.80;;
19127;SDS011;9696;53.686;10.094;2023-03-13T14:20:27;5.25;;;1.10;;
19127;SDS011;9696;53.686;10.094;2023-03-13T14:22:59;4.20;;;0.70;;
19127;SDS011;9696;53.686;10.094;2023-03-13T14:28:21;2.70;;;1.00;;
19127;SDS011;9696;53.686;10.094;2023-03-13T14:30:52;3.17;;;1.00;;
19127;SDS011;9696;53.686;10.094;2023-03-13T14:33:23;3.47;;;0.98;;
19127;SDS011;9696;53.686;10.094;2023-03-13T14:35:53;2.25;;;0.90;;
19127;SDS011;9696;53.686;10.094;2023-03-13T14:38:24;3.38;;;0.80;;
19127;SDS011;9696;53.686;10.094;2023-03-13T14:40:55;4.93;;;1.10;;
19127;SDS011;9696;53.686;10.094;2023-03-13T14:43:29;2.70;;;0.80;;
19127;SDS011;9696;53.686;10.094;2023-03-13T14:46:10;3.17;;;0.95;;
19127;SDS011;9696;53.686;10.094;2023-03-13T14:48:41;1.48;;;0.70;;
19127;SDS011;9696;53.686;10.094;2023-03-13T14:51:15;1.50;;;0.70;;
19127;SDS011;9696;53.686;10.094;2023-03-13T14:53:52;0.93;;;0.57;;
19127;SDS011;9696;53.686;10.094;2023-03-13T14:56:29;3.35;;;1.10;;
19127;SDS011;9696;53.686;10.094;2023-03-13T14:59:11;1.35;;;0.77;;
19127;SDS011;9696;53.686;10.094;2023-03-13T15:01:43;4.63;;;0.85;;
19127;SDS011;9696;53.686;10.094;2023-03-13T15:04:13;3.85;;;1.35;;
19127;SDS011;9696;53.686;10.094;2023-03-13T15:06:42;2.20;;;0.80;;
19127;SDS011;9696;53.686;10.094;2023-03-13T15:09:16;2.83;;;1.13;;
19127;SDS011;9696;53.686;10.094;2023-03-13T15:11:56;3.40;;;0.90;;
19127;SDS011;9696;53.686;10.094;2023-03-13T15:14:32;2.22;;;0.63;;
19127;SDS011;9696;53.686;10.094;2023-03-13T15:17:08;1.50;;;0.85;;
19127;SDS011;9696;53.686;10.094;2023-03-13T15:19:41;4.05;;;1.55;;
19127;SDS011;9696;53.686;10.094;2023-03-13T15:22:11;1.05;;;0.70;;
19127;SDS011;9696;53.686;10.094;2023-03-13T15:24:42;2.28;;;1.00;;
19127;SDS011;9696;53.686;10.094;2023-03-13T15:27:30;5.20;;;1.52;;
19127;SDS011;9696;53.686;10.094;2023-03-13T15:30:01;1.60;;;0.70;;
19127;SDS011;9696;53.686;10.094;2023-03-13T15:32:31;2.78;;;0.80;;
19127;SDS011;9696;53.686;10.094;2023-03-13T15:35:05;2.90;;;1.40;;
19127;SDS011;9696;53.686;10.094;2023-03-13T15:37:51;2.38;;;0.70;;
19127;SDS011;9696;53.686;10.094;2023-03-13T15:40:21;4.30;;;1.08;;
19127;SDS011;9696;53.686;10.094;2023-03-13T15:42:51;3.63;;;1.10;;
19127;SDS011;9696;53.686;10.094;2023-03-13T15:45:22;3.70;;;1.05;;
19127;SDS011;9696;53.686;10.094;2023-03-13T15:47:51;2.40;;;0.60;;
19127;SDS011;9696;53.686;10.094;2023-03-13T15:50:20;3.13;;;0.75;;
19127;SDS011;9696;53.686;10.094;2023-03-13T15:52:55;1.95;;;0.70;;
19127;SDS011;9696;53.686;10.094;2023-03-13T15:55:26;5.13;;;0.90;;